Paris, Virginia
Current Conditions -  °F | °C
As of 4:35 AM on Friday 24 Oct 2014 (Local Time) from KOKV Reporting Station
Clear Clear  
Wind Chill: 52°   Ceiling: Unl
Heat Index: 52°   Visibility: 10mi
Dew Point: 37°   Wind: 13mph
Humidity: 58%   Direction: 310°NW
Pressure: 29.98"   Gusts: 16mph
Location:  39°N, 77.95°W
Report Text: KOKV 240835Z AUTO 31011G14KT 10SM CLR 11/03 A2998 RMK AO2
Loading
Personal Weather Stations






























Interactive Weather Map
Tropical Storm Tracking
New forecast layout! Learn more

10-Day Weather Forecast

Advertisements
Track Severe Weather on mobile